Time;durP1;ratioP1;P1;durP2;ratioP2;P2;SDS_P1;SDS_P2;PMS_P1;PMS_P2;Temp;Humidity;BMP_temperature;BMP_pressure;BME280_temperature;BME280_humidity;BME280_pressure;Samples;Min_cycle;Max_cycle;Signal;HPM_P1;HPM_P2
2021/04/15 00:02:12;;;;;;;1.98;1.65;;;;;;;;;;5089570;28;20047;-77
2021/04/15 00:04:38;;;;;;;1.08;0.95;;;;;;;;;;5089370;28;20436;-77
2021/04/15 00:07:04;;;;;;;1.25;0.95;;;;;;;;;;5089519;28;20024;-77
2021/04/15 00:09:30;;;;;;;2.40;1.45;;;;;;;;;;5089081;28;20032;-77
2021/04/15 00:11:56;;;;;;;2.17;1.98;;;;;;;;;;5089241;28;20032;-77
2021/04/15 00:14:23;;;;;;;1.92;1.65;;;;;;;;;;5089081;28;20089;-76
2021/04/15 00:16:49;;;;;;;1.77;1.58;;;;;;;;;;5089539;28;20031;-77
2021/04/15 00:19:18;;;;;;;1.23;1.13;;;;;;;;;;5089090;28;20061;-76
2021/04/15 00:21:44;;;;;;;3.05;1.60;;;;;;;;;;5089280;28;20421;-77
2021/04/15 00:24:10;;;;;;;1.58;1.48;;;;;;;;;;5089260;28;20032;-77
2021/04/15 00:26:37;;;;;;;1.13;1.02;;;;;;;;;;5089177;28;20371;-77
2021/04/15 00:29:03;;;;;;;1.92;1.60;;;;;;;;;;5089693;28;20514;-77
2021/04/15 00:31:30;;;;;;;1.30;1.20;;;;;;;;;;5089764;28;20063;-77
2021/04/15 00:33:56;;;;;;;1.55;1.08;;;;;;;;;;5093842;28;20077;-77
2021/04/15 00:36:22;;;;;;;1.50;1.40;;;;;;;;;;5093424;28;20028;-77
2021/04/15 00:38:49;;;;;;;1.50;1.38;;;;;;;;;;5093079;28;20560;-77
2021/04/15 00:41:15;;;;;;;0.98;0.90;;;;;;;;;;5092767;28;20065;-76
2021/04/15 00:43:44;;;;;;;1.17;1.08;;;;;;;;;;5093200;28;20040;-77
2021/04/15 00:46:15;;;;;;;3.88;1.83;;;;;;;;;;5093500;28;20043;-77
2021/04/15 00:48:45;;;;;;;5.72;1.55;;;;;;;;;;5092988;28;20059;-77
2021/04/15 00:51:14;;;;;;;1.80;1.67;;;;;;;;;;5092813;28;20042;-77
2021/04/15 00:53:43;;;;;;;1.15;1.15;;;;;;;;;;5092611;28;20063;-77
2021/04/15 00:56:09;;;;;;;2.33;1.05;;;;;;;;;;5093258;28;20071;-77
2021/04/15 00:58:36;;;;;;;1.27;1.17;;;;;;;;;;5092260;28;20044;-77
2021/04/15 01:01:03;;;;;;;1.42;1.00;;;;;;;;;;5092961;28;20020;-77
2021/04/15 01:03:29;;;;;;;1.48;1.20;;;;;;;;;;5092405;28;20056;-77
2021/04/15 01:05:55;;;;;;;1.35;0.93;;;;;;;;;;5093372;28;20101;-77
2021/04/15 01:08:21;;;;;;;1.95;1.27;;;;;;;;;;5092042;28;20023;-77
2021/04/15 01:10:58;;;;;;;1.40;1.30;;;;;;;;;;5093194;28;20194;-77
2021/04/15 01:13:30;;;;;;;1.05;0.80;;;;;;;;;;5091730;28;20440;-77
2021/04/15 01:16:05;;;;;;;1.27;1.17;;;;;;;;;;5092936;28;20027;-77
2021/04/15 01:18:37;;;;;;;1.55;1.30;;;;;;;;;;5092147;28;20055;-77
2021/04/15 01:21:06;;;;;;;1.27;1.13;;;;;;;;;;5092494;28;20058;-77
2021/04/15 01:23:44;;;;;;;1.63;1.52;;;;;;;;;;5091959;28;20373;-77
2021/04/15 01:26:26;;;;;;;1.73;0.93;;;;;;;;;;5093058;28;20067;-77
2021/04/15 01:28:58;;;;;;;0.70;0.70;;;;;;;;;;5093019;28;20478;-78
2021/04/15 01:31:44;;;;;;;1.60;0.95;;;;;;;;;;5091658;28;20044;-77
2021/04/15 01:34:17;;;;;;;1.40;0.88;;;;;;;;;;5078479;28;20044;-77
2021/04/15 01:36:58;;;;;;;2.40;1.80;;;;;;;;;;5091970;28;20035;-77
2021/04/15 01:39:32;;;;;;;1.17;0.98;;;;;;;;;;5090945;28;20441;-77
2021/04/15 01:42:19;;;;;;;1.45;1.20;;;;;;;;;;5092418;28;20180;-77
2021/04/15 01:44:50;;;;;;;1.20;1.10;;;;;;;;;;5091407;28;20121;-77
2021/04/15 01:47:22;;;;;;;1.38;1.27;;;;;;;;;;5091760;28;20119;-77
2021/04/15 01:49:52;;;;;;;1.45;1.38;;;;;;;;;;5092085;28;20024;-77
2021/04/15 01:52:18;;;;;;;1.58;1.20;;;;;;;;;;5091344;28;20036;-76
2021/04/15 01:55:01;;;;;;;2.38;1.83;;;;;;;;;;5091603;28;20024;-77
2021/04/15 01:57:47;;;;;;;1.88;1.42;;;;;;;;;;5091348;28;20443;-77
2021/04/15 02:00:13;;;;;;;1.20;1.10;;;;;;;;;;5050761;28;20491;-76
2021/04/15 02:02:41;;;;;;;1.20;1.10;;;;;;;;;;5091075;28;20039;-77
2021/04/15 02:05:13;;;;;;;1.00;1.00;;;;;;;;;;5092211;28;20024;-77
2021/04/15 02:07:43;;;;;;;1.33;1.23;;;;;;;;;;5091208;28;20032;-77
2021/04/15 02:10:10;;;;;;;1.65;1.13;;;;;;;;;;5092049;28;20364;-77
2021/04/15 02:12:39;;;;;;;1.08;0.98;;;;;;;;;;5090708;28;20597;-77
2021/04/15 02:15:29;;;;;;;1.35;1.25;;;;;;;;;;5091964;28;20031;-77
2021/04/15 02:18:01;;;;;;;2.03;1.13;;;;;;;;;;5081265;28;20040;-77
2021/04/15 02:20:28;;;;;;;1.25;1.15;;;;;;;;;;5090792;28;20093;-76
2021/04/15 02:23:12;;;;;;;1.35;1.25;;;;;;;;;;5091283;28;20032;-77
2021/04/15 02:26:00;;;;;;;1.92;1.20;;;;;;;;;;5090907;28;20486;-77
2021/04/15 02:28:33;;;;;;;1.48;1.38;;;;;;;;;;5090742;28;20473;-77
2021/04/15 02:30:59;;;;;;;1.25;1.00;;;;;;;;;;5091307;28;20036;-77
2021/04/15 02:33:35;;;;;;;1.10;1.00;;;;;;;;;;5090311;28;20043;-76
2021/04/15 02:36:03;;;;;;;1.00;0.90;;;;;;;;;;5091183;28;20123;-77
2021/04/15 02:38:42;;;;;;;1.40;1.30;;;;;;;;;;5089879;28;20051;-77
2021/04/15 02:41:10;;;;;;;1.13;0.90;;;;;;;;;;5091467;28;20059;-77
2021/04/15 02:43:49;;;;;;;1.25;1.20;;;;;;;;;;5090233;28;20032;-77
2021/04/15 02:46:20;;;;;;;0.77;0.77;;;;;;;;;;5091129;28;20035;-76
2021/04/15 02:48:48;;;;;;;1.48;1.13;;;;;;;;;;5091161;28;20024;-77
2021/04/15 02:51:18;;;;;;;1.63;1.52;;;;;;;;;;5075201;28;20348;-76
2021/04/15 02:53:51;;;;;;;1.77;0.85;;;;;;;;;;5070494;28;20490;-77
2021/04/15 02:56:26;;;;;;;1.98;1.40;;;;;;;;;;5070375;28;20093;-75
2021/04/15 02:59:07;;;;;;;1.42;0.90;;;;;;;;;;5070574;28;20031;-77
2021/04/15 03:01:35;;;;;;;1.00;1.00;;;;;;;;;;5069712;28;20345;-77
2021/04/15 03:04:02;;;;;;;1.40;1.00;;;;;;;;;;5070394;28;20086;-77
2021/04/15 03:06:33;;;;;;;1.40;1.00;;;;;;;;;;5069791;28;20036;-76
2021/04/15 03:09:01;;;;;;;0.98;0.98;;;;;;;;;;5070663;28;20054;-77
2021/04/15 03:11:38;;;;;;;0.93;0.82;;;;;;;;;;5069086;28;20044;-77
2021/04/15 03:14:07;;;;;;;1.65;1.50;;;;;;;;;;5070183;28;20031;-77
2021/04/15 03:16:36;;;;;;;1.05;1.00;;;;;;;;;;5069545;28;20202;-77
2021/04/15 03:19:07;;;;;;;1.25;1.08;;;;;;;;;;5070054;28;20020;-76
2021/04/15 03:21:41;;;;;;;1.55;0.98;;;;;;;;;;5069323;28;20051;-76
2021/04/15 03:24:16;;;;;;;1.27;1.25;;;;;;;;;;5070048;28;20032;-77
2021/04/15 03:26:48;;;;;;;0.47;0.47;;;;;;;;;;5069906;28;20114;-77
2021/04/15 03:29:22;;;;;;;1.98;1.00;;;;;;;;;;5070059;28;20528;-76
2021/04/15 03:31:54;;;;;;;1.27;0.98;;;;;;;;;;5069867;28;20047;-77
2021/04/15 03:34:24;;;;;;;1.20;1.05;;;;;;;;;;5069600;28;20036;-76
2021/04/15 03:36:52;;;;;;;4.65;1.55;;;;;;;;;;5069763;28;20107;-77
2021/04/15 03:39:24;;;;;;;1.00;0.93;;;;;;;;;;5081265;28;20076;-76
2021/04/15 03:41:53;;;;;;;1.40;0.93;;;;;;;;;;5090074;28;20089;-77
2021/04/15 03:44:25;;;;;;;0.98;0.85;;;;;;;;;;5089719;28;20024;-76
2021/04/15 03:47:04;;;;;;;1.25;1.00;;;;;;;;;;5090230;28;20101;-77
2021/04/15 03:49:35;;;;;;;1.20;1.10;;;;;;;;;;5089252;28;20036;-76
2021/04/15 03:52:04;;;;;;;1.35;1.25;;;;;;;;;;5089314;28;20024;-77
2021/04/15 03:54:35;;;;;;;0.93;0.93;;;;;;;;;;5089294;28;20035;-77
2021/04/15 03:57:02;;;;;;;0.82;0.82;;;;;;;;;;5090046;28;20028;-77
2021/04/15 03:59:28;;;;;;;0.85;0.85;;;;;;;;;;5088883;28;20032;-76
2021/04/15 04:01:56;;;;;;;1.10;1.10;;;;;;;;;;5089556;28;20044;-77
2021/04/15 04:04:25;;;;;;;2.38;1.33;;;;;;;;;;5088940;28;20034;-76
2021/04/15 04:06:51;;;;;;;2.10;1.63;;;;;;;;;;5089072;28;20028;-76
2021/04/15 04:09:20;;;;;;;2.15;1.10;;;;;;;;;;5089666;28;20111;-76
2021/04/15 04:11:48;;;;;;;1.80;1.17;;;;;;;;;;5089453;28;20032;-76
2021/04/15 04:14:20;;;;;;;1.75;1.00;;;;;;;;;;5089818;28;20027;-76
2021/04/15 04:16:56;;;;;;;1.08;0.90;;;;;;;;;;5089843;28;20025;-76
2021/04/15 04:19:30;;;;;;;1.63;1.05;;;;;;;;;;5089075;28;20475;-76
2021/04/15 04:22:15;;;;;;;1.40;1.30;;;;;;;;;;5089325;28;20078;-76
2021/04/15 04:24:53;;;;;;;1.20;1.10;;;;;;;;;;5089525;28;20471;-76
2021/04/15 04:27:28;;;;;;;1.83;1.30;;;;;;;;;;5088973;28;20502;-76
2021/04/15 04:30:12;;;;;;;1.30;1.00;;;;;;;;;;5089680;28;20028;-76
2021/04/15 04:32:39;;;;;;;0.60;0.60;;;;;;;;;;5088771;28;20036;-76
2021/04/15 04:35:06;;;;;;;0.95;0.93;;;;;;;;;;5089712;28;20024;-77
2021/04/15 04:37:37;;;;;;;1.40;1.30;;;;;;;;;;5088608;28;20081;-77
2021/04/15 04:40:05;;;;;;;1.90;1.60;;;;;;;;;;5089064;28;20051;-77
2021/04/15 04:42:40;;;;;;;0.82;0.77;;;;;;;;;;5088661;28;20039;-76
2021/04/15 04:45:08;;;;;;;1.90;1.27;;;;;;;;;;5089410;28;20024;-76
2021/04/15 04:47:43;;;;;;;1.23;1.13;;;;;;;;;;5088647;28;20154;-76
2021/04/15 04:50:25;;;;;;;1.38;1.15;;;;;;;;;;5089272;28;20403;-77
2021/04/15 04:53:02;;;;;;;0.90;0.90;;;;;;;;;;5088676;28;20410;-77
2021/04/15 04:55:45;;;;;;;1.15;1.05;;;;;;;;;;5088741;28;20085;-76
2021/04/15 04:58:15;;;;;;;1.92;1.00;;;;;;;;;;5089930;28;20028;-76
2021/04/15 05:00:46;;;;;;;0.85;0.85;;;;;;;;;;5089030;28;20483;-76
2021/04/15 05:03:17;;;;;;;1.25;1.15;;;;;;;;;;5089300;28;20413;-76
2021/04/15 05:05:43;;;;;;;0.88;0.68;;;;;;;;;;5089250;28;20049;-76
2021/04/15 05:08:11;;;;;;;1.13;1.10;;;;;;;;;;5088959;28;20471;-76
2021/04/15 05:10:37;;;;;;;2.63;1.40;;;;;;;;;;5088861;28;20044;-76
2021/04/15 05:13:21;;;;;;;1.27;1.20;;;;;;;;;;5089270;28;20478;-76
2021/04/15 05:15:47;;;;;;;1.30;1.20;;;;;;;;;;5089506;28;20050;-76
2021/04/15 05:18:18;;;;;;;2.20;1.50;;;;;;;;;;5089535;28;20449;-76
2021/04/15 05:20:44;;;;;;;2.10;0.85;;;;;;;;;;5092894;28;20483;-76
2021/04/15 05:23:20;;;;;;;1.25;1.17;;;;;;;;;;5092121;28;20036;-76
2021/04/15 05:25:58;;;;;;;0.75;0.75;;;;;;;;;;5092628;28;20077;-76
2021/04/15 05:28:24;;;;;;;1.25;1.15;;;;;;;;;;5091438;28;20055;-76
2021/04/15 05:30:51;;;;;;;1.20;1.10;;;;;;;;;;5092486;28;20036;-76
2021/04/15 05:33:22;;;;;;;1.35;1.25;;;;;;;;;;5091989;28;20482;-76
2021/04/15 05:35:54;;;;;;;0.80;0.80;;;;;;;;;;5092260;28;20055;-76
2021/04/15 05:38:20;;;;;;;1.17;0.95;;;;;;;;;;5091282;28;20047;-75
2021/04/15 05:40:48;;;;;;;2.45;1.13;;;;;;;;;;5092198;28;20111;-76
2021/04/15 05:43:27;;;;;;;2.58;0.90;;;;;;;;;;5092028;28;20032;-76
2021/04/15 05:45:59;;;;;;;1.45;0.80;;;;;;;;;;5092340;28;20043;-76
2021/04/15 05:48:27;;;;;;;1.40;0.68;;;;;;;;;;5090121;28;20032;-76
2021/04/15 05:50:54;;;;;;;1.23;1.13;;;;;;;;;;5089768;28;20127;-76
2021/04/15 05:53:23;;;;;;;2.33;1.15;;;;;;;;;;5089224;28;20032;-75
2021/04/15 05:55:52;;;;;;;2.35;1.27;;;;;;;;;;5091537;28;20463;-76
2021/04/15 05:58:30;;;;;;;1.40;1.30;;;;;;;;;;5091717;28;20028;-76
2021/04/15 06:01:03;;;;;;;0.88;0.88;;;;;;;;;;5091856;28;20024;-76
2021/04/15 06:03:36;;;;;;;0.93;0.93;;;;;;;;;;5079658;28;20025;-76
2021/04/15 06:06:11;;;;;;;0.57;0.57;;;;;;;;;;5108896;28;20166;-76
2021/04/15 06:08:38;;;;;;;0.93;0.88;;;;;;;;;;5093074;28;20039;-76
2021/04/15 06:11:28;;;;;;;0.90;0.90;;;;;;;;;;5085425;28;20031;-76
2021/04/15 06:13:59;;;;;;;1.08;0.98;;;;;;;;;;5073483;28;20031;-77
2021/04/15 06:16:33;;;;;;;3.20;1.77;;;;;;;;;;5079750;28;20398;-76
2021/04/15 06:19:04;;;;;;;4.43;2.92;;;;;;;;;;5081203;28;20039;-77
2021/04/15 06:21:34;;;;;;;2.33;1.63;;;;;;;;;;5078713;28;20119;-76
2021/04/15 06:24:05;;;;;;;2.50;1.83;;;;;;;;;;5083700;28;20032;-77
2021/04/15 06:26:44;;;;;;;1.60;1.38;;;;;;;;;;5080152;28;20032;-77
2021/04/15 06:29:28;;;;;;;2.75;1.58;;;;;;;;;;5081530;28;20024;-77
2021/04/15 06:31:57;;;;;;;4.65;2.53;;;;;;;;;;5100293;28;20044;-77
2021/04/15 06:34:23;;;;;;;3.75;3.05;;;;;;;;;;5093907;28;20035;-77
2021/04/15 06:37:02;;;;;;;4.03;3.47;;;;;;;;;;5085885;28;20095;-77
2021/04/15 06:39:33;;;;;;;6.40;2.92;;;;;;;;;;5063345;28;20052;-78
2021/04/15 06:42:01;;;;;;;4.60;3.22;;;;;;;;;;5082984;28;20164;-77
2021/04/15 06:44:44;;;;;;;5.97;3.50;;;;;;;;;;5087977;28;20072;-78
2021/04/15 06:47:16;;;;;;;4.70;4.07;;;;;;;;;;5084829;28;20032;-75
2021/04/15 06:49:51;;;;;;;5.18;2.58;;;;;;;;;;5088523;28;20028;-79
2021/04/15 06:52:20;;;;;;;5.18;3.33;;;;;;;;;;5089523;28;20093;-78
2021/04/15 06:54:52;;;;;;;25.40;22.15;;;;;;;;;;5090805;28;20047;-78
2021/04/15 06:57:27;;;;;;;14.55;11.75;;;;;;;;;;5088146;28;20581;-77
2021/04/15 07:00:00;;;;;;;6.55;5.90;;;;;;;;;;5089797;28;20020;-76
2021/04/15 07:02:38;;;;;;;10.43;5.43;;;;;;;;;;5067858;28;20056;-76
2021/04/15 07:05:10;;;;;;;10.40;5.25;;;;;;;;;;5077236;28;20032;-78
2021/04/15 07:07:38;;;;;;;8.23;4.10;;;;;;;;;;5080406;28;20092;-75
2021/04/15 07:10:15;;;;;;;5.85;4.57;;;;;;;;;;5083887;28;20063;-75
2021/04/15 07:12:48;;;;;;;5.65;4.55;;;;;;;;;;5082416;28;20039;-75
2021/04/15 07:15:29;;;;;;;4.72;3.67;;;;;;;;;;5084168;28;20036;-73
2021/04/15 07:17:55;;;;;;;6.50;4.05;;;;;;;;;;5083163;28;20024;-75
2021/04/15 07:20:21;;;;;;;4.90;4.38;;;;;;;;;;5082901;28;20032;-75
2021/04/15 07:22:57;;;;;;;8.48;3.80;;;;;;;;;;5082031;28;20095;-75
2021/04/15 07:25:29;;;;;;;5.07;3.25;;;;;;;;;;5079122;28;20043;-75
2021/04/15 07:27:55;;;;;;;4.00;3.63;;;;;;;;;;5091155;28;20221;-74
2021/04/15 07:30:40;;;;;;;5.43;3.65;;;;;;;;;;5082609;28;20478;-75
2021/04/15 07:33:17;;;;;;;3.88;2.97;;;;;;;;;;5078992;28;20503;-75
2021/04/15 07:35:47;;;;;;;4.25;2.70;;;;;;;;;;5080973;28;20796;-75
2021/04/15 07:38:19;;;;;;;5.07;3.25;;;;;;;;;;5084028;28;20483;-75
2021/04/15 07:40:54;;;;;;;3.05;2.72;;;;;;;;;;5087475;28;20023;-75
2021/04/15 07:43:23;;;;;;;5.15;2.40;;;;;;;;;;5085084;28;20025;-75
2021/04/15 07:45:52;;;;;;;5.70;2.78;;;;;;;;;;5093847;28;20043;-75
2021/04/15 07:48:33;;;;;;;4.53;2.45;;;;;;;;;;5084295;28;20424;-75
2021/04/15 07:51:18;;;;;;;3.35;3.05;;;;;;;;;;5081407;28;20514;-75
2021/04/15 07:53:50;;;;;;;2.53;2.33;;;;;;;;;;5082439;28;20047;-75
2021/04/15 07:56:19;;;;;;;3.53;1.95;;;;;;;;;;5079851;28;20028;-75
2021/04/15 07:59:04;;;;;;;2.42;1.92;;;;;;;;;;5073995;28;20064;-75
2021/04/15 08:01:30;;;;;;;4.65;2.10;;;;;;;;;;5075040;28;20032;-74
2021/04/15 08:04:14;;;;;;;2.75;2.15;;;;;;;;;;5072918;28;20040;-76
2021/04/15 08:06:50;;;;;;;2.30;2.10;;;;;;;;;;5071175;28;20033;-75
2021/04/15 08:09:29;;;;;;;2.70;2.35;;;;;;;;;;5072994;28;20029;-74
2021/04/15 08:12:07;;;;;;;4.00;2.13;;;;;;;;;;5091474;28;20627;-75
2021/04/15 08:14:36;;;;;;;2.78;2.42;;;;;;;;;;5094331;28;20046;-76
2021/04/15 08:17:11;;;;;;;3.28;2.38;;;;;;;;;;5087729;28;20029;-74
2021/04/15 08:19:40;;;;;;;3.53;3.05;;;;;;;;;;5084073;28;20482;-75
2021/04/15 08:22:06;;;;;;;4.35;2.13;;;;;;;;;;5085822;28;20027;-72
2021/04/15 08:24:51;;;;;;;3.40;2.53;;;;;;;;;;5092008;28;20043;-72
2021/04/15 08:27:26;;;;;;;3.22;2.35;;;;;;;;;;5089712;28;20540;-72
2021/04/15 08:29:58;;;;;;;3.60;2.70;;;;;;;;;;5075343;28;20039;-75
2021/04/15 08:32:33;;;;;;;3.80;3.33;;;;;;;;;;5072081;28;20051;-74
2021/04/15 08:35:12;;;;;;;5.80;2.63;;;;;;;;;;5086410;28;20037;-73
2021/04/15 08:37:57;;;;;;;4.60;2.67;;;;;;;;;;5080410;28;20632;-74
2021/04/15 08:40:29;;;;;;;6.15;2.30;;;;;;;;;;5074672;28;20072;-74
2021/04/15 08:43:04;;;;;;;3.53;2.00;;;;;;;;;;5072025;28;20540;-75
2021/04/15 08:45:42;;;;;;;2.67;2.20;;;;;;;;;;5093751;28;20520;-74
2021/04/15 08:48:15;;;;;;;2.20;1.83;;;;;;;;;;5079934;28;20148;-73
2021/04/15 08:50:48;;;;;;;2.58;2.17;;;;;;;;;;5082929;28;20036;-74
2021/04/15 08:53:33;;;;;;;4.28;2.90;;;;;;;;;;5082766;28;20028;-74
2021/04/15 08:56:01;;;;;;;5.22;2.83;;;;;;;;;;5079242;28;20034;-75
2021/04/15 08:58:48;;;;;;;9.85;3.95;;;;;;;;;;5092979;28;20031;-77
2021/04/15 09:01:14;;;;;;;2.53;2.20;;;;;;;;;;5084387;28;20056;-74
2021/04/15 09:04:04;;;;;;;5.30;2.90;;;;;;;;;;5093649;28;20395;-73
2021/04/15 09:06:39;;;;;;;2.65;2.45;;;;;;;;;;5091046;28;20257;-74
2021/04/15 09:09:05;;;;;;;4.18;2.72;;;;;;;;;;5099002;28;20120;-73
2021/04/15 09:12:00;;;;;;;4.28;2.70;;;;;;;;;;5082256;28;20041;-73
2021/04/15 09:14:47;;;;;;;3.63;2.53;;;;;;;;;;5066541;28;20044;-72
2021/04/15 09:17:19;;;;;;;2.38;2.17;;;;;;;;;;5058775;28;20043;-74
2021/04/15 09:19:48;;;;;;;5.60;2.73;;;;;;;;;;5091663;28;20066;-75
2021/04/15 09:22:33;;;;;;;3.28;2.03;;;;;;;;;;5087321;28;20038;-75
2021/04/15 09:25:03;;;;;;;2.22;2.03;;;;;;;;;;5091278;28;20036;-75
2021/04/15 09:27:32;;;;;;;5.13;2.17;;;;;;;;;;5085669;28;20131;-75
2021/04/15 09:30:14;;;;;;;3.70;2.53;;;;;;;;;;5085218;28;20120;-75
2021/04/15 09:32:53;;;;;;;3.95;1.92;;;;;;;;;;5087270;28;20037;-76
2021/04/15 09:35:34;;;;;;;7.05;2.92;;;;;;;;;;5087492;28;20047;-75
2021/04/15 09:38:15;;;;;;;2.65;1.92;;;;;;;;;;5088253;28;20094;-74
2021/04/15 09:40:47;;;;;;;2.97;2.42;;;;;;;;;;5084912;28;20031;-75
2021/04/15 09:43:46;;;;;;;2.25;2.00;;;;;;;;;;5087632;28;20471;-74
2021/04/15 09:46:28;;;;;;;3.53;2.35;;;;;;;;;;5050853;28;20399;-75
2021/04/15 09:48:59;;;;;;;1.92;1.70;;;;;;;;;;5074342;28;20500;-75
2021/04/15 09:51:28;;;;;;;4.35;2.42;;;;;;;;;;5086148;28;20110;-76
2021/04/15 09:54:00;;;;;;;4.78;2.47;;;;;;;;;;5087095;28;20058;-76
2021/04/15 09:56:51;;;;;;;3.42;2.22;;;;;;;;;;5075066;28;20122;-76
2021/04/15 09:59:17;;;;;;;3.08;2.67;;;;;;;;;;5075000;28;20066;-77
2021/04/15 10:01:47;;;;;;;2.95;2.67;;;;;;;;;;5074399;28;20028;-76
2021/04/15 10:04:27;;;;;;;2.92;2.10;;;;;;;;;;5075730;28;20075;-75
2021/04/15 10:06:59;;;;;;;2.03;1.83;;;;;;;;;;5077959;28;20419;-76
2021/04/15 10:09:44;;;;;;;2.38;2.17;;;;;;;;;;5090681;28;20100;-75
2021/04/15 10:12:10;;;;;;;6.53;3.10;;;;;;;;;;5094215;28;20027;-76
2021/04/15 10:14:36;;;;;;;2.55;2.35;;;;;;;;;;5078518;28;20036;-73
2021/04/15 10:17:11;;;;;;;3.50;2.47;;;;;;;;;;5089846;28;20048;-75
2021/04/15 10:20:00;;;;;;;2.95;2.15;;;;;;;;;;5083284;28;20342;-81
2021/04/15 10:22:32;;;;;;;2.88;2.10;;;;;;;;;;5093317;28;20082;-78
2021/04/15 10:25:14;;;;;;;2.35;1.95;;;;;;;;;;5096504;28;20042;-73
2021/04/15 10:27:49;;;;;;;3.67;1.85;;;;;;;;;;5095026;28;20558;-72
2021/04/15 10:30:34;;;;;;;3.97;2.00;;;;;;;;;;5093987;28;20030;-72
2021/04/15 10:33:00;;;;;;;2.85;1.85;;;;;;;;;;5072875;28;20549;-72
2021/04/15 10:35:32;;;;;;;6.95;2.67;;;;;;;;;;5070391;28;21420;-72
2021/04/15 10:38:17;;;;;;;1.98;1.88;;;;;;;;;;5094929;28;20062;-72
2021/04/15 10:40:44;;;;;;;2.47;1.90;;;;;;;;;;5094786;28;20041;-73
2021/04/15 10:43:39;;;;;;;2.03;1.88;;;;;;;;;;5097477;28;20059;-73
2021/04/15 10:46:08;;;;;;;3.75;1.90;;;;;;;;;;5087046;28;20043;-73
2021/04/15 10:48:34;;;;;;;1.73;1.58;;;;;;;;;;5074940;28;20152;-73
2021/04/15 10:51:36;;;;;;;2.25;1.50;;;;;;;;;;5096250;28;20088;-73
2021/04/15 10:54:20;;;;;;;1.80;1.15;;;;;;;;;;5023186;28;20124;-73
2021/04/15 10:56:49;;;;;;;2.05;1.63;;;;;;;;;;5070865;28;20052;-73
2021/04/15 10:59:17;;;;;;;3.13;1.17;;;;;;;;;;5076158;28;20043;-72
2021/04/15 11:01:47;;;;;;;2.35;1.90;;;;;;;;;;5092894;28;20023;-73
2021/04/15 11:04:13;;;;;;;4.50;2.67;;;;;;;;;;5095063;28;20027;-72
2021/04/15 11:06:41;;;;;;;2.20;1.90;;;;;;;;;;5095944;28;20032;-73
2021/04/15 11:09:19;;;;;;;2.85;2.03;;;;;;;;;;5096374;28;20024;-73
2021/04/15 11:11:54;;;;;;;1.75;1.23;;;;;;;;;;5075487;28;20380;-73
2021/04/15 11:14:21;;;;;;;1.70;1.58;;;;;;;;;;5074692;28;20300;-73
2021/04/15 11:16:49;;;;;;;3.20;1.73;;;;;;;;;;5074699;28;20027;-74
2021/04/15 11:19:15;;;;;;;1.95;1.65;;;;;;;;;;5075832;28;20086;-73
2021/04/15 11:21:43;;;;;;;2.33;1.92;;;;;;;;;;5074905;28;20024;-73
2021/04/15 11:24:28;;;;;;;3.03;1.75;;;;;;;;;;5077801;28;20487;-74
2021/04/15 11:26:55;;;;;;;1.23;1.23;;;;;;;;;;5076320;28;20032;-74
2021/04/15 11:29:21;;;;;;;1.67;1.50;;;;;;;;;;5092484;28;20062;-75
2021/04/15 11:31:47;;;;;;;2.10;1.88;;;;;;;;;;5093625;28;20039;-74
2021/04/15 11:34:15;;;;;;;2.22;1.77;;;;;;;;;;5089250;28;20034;-74
2021/04/15 11:36:51;;;;;;;2.67;1.40;;;;;;;;;;5070885;28;20663;-73
2021/04/15 11:39:21;;;;;;;1.55;1.25;;;;;;;;;;5092511;28;20050;-74
2021/04/15 11:41:47;;;;;;;1.65;1.55;;;;;;;;;;5091009;28;20029;-74
2021/04/15 11:44:23;;;;;;;1.58;1.48;;;;;;;;;;5074324;28;20035;-74
2021/04/15 11:46:52;;;;;;;3.72;1.10;;;;;;;;;;5079039;28;20022;-75
2021/04/15 11:49:32;;;;;;;1.30;1.20;;;;;;;;;;5068865;28;20045;-75
2021/04/15 11:52:10;;;;;;;4.00;1.77;;;;;;;;;;5078965;28;20089;-74
2021/04/15 11:54:38;;;;;;;1.65;1.45;;;;;;;;;;5086886;28;20089;-75
2021/04/15 11:57:19;;;;;;;3.13;1.38;;;;;;;;;;5079671;28;20484;-74
2021/04/15 12:00:13;;;;;;;4.63;4.15;;;;;;;;;;5091162;28;20030;-75
2021/04/15 12:02:42;;;;;;;;;;;;;;;;;;5072915;28;20515;-75
2021/04/15 12:05:17;;;;;;;3.15;2.85;;;;;;;;;;5095299;28;19903;-75
2021/04/15 12:07:46;;;;;;;2.78;1.90;;;;;;;;;;5092392;28;20032;-74
2021/04/15 12:10:13;;;;;;;2.53;2.03;;;;;;;;;;5092490;28;20023;-75
2021/04/15 12:12:43;;;;;;;2.33;1.85;;;;;;;;;;5077804;28;20040;-74
2021/04/15 12:15:13;;;;;;;2.17;1.95;;;;;;;;;;5083553;28;20082;-75
2021/04/15 12:17:49;;;;;;;4.25;2.03;;;;;;;;;;5076939;28;20036;-74
2021/04/15 12:20:25;;;;;;;2.65;2.20;;;;;;;;;;5085434;28;20032;-74
2021/04/15 12:22:51;;;;;;;3.65;1.60;;;;;;;;;;5089803;28;20089;-75
2021/04/15 12:25:25;;;;;;;4.68;2.40;;;;;;;;;;5078802;28;20147;-74
2021/04/15 12:28:27;;;;;;;2.72;1.83;;;;;;;;;;5096022;28;20028;-75
2021/04/15 12:31:04;;;;;;;2.88;1.73;;;;;;;;;;5017638;28;20056;-75
2021/04/15 12:33:30;;;;;;;11.60;3.53;;;;;;;;;;5080682;28;20047;-74
2021/04/15 12:36:02;;;;;;;5.32;2.78;;;;;;;;;;5081031;28;20458;-76
2021/04/15 12:38:32;;;;;;;5.55;2.95;;;;;;;;;;5091336;28;20045;-78
2021/04/15 12:40:59;;;;;;;10.48;2.55;;;;;;;;;;5078458;28;20036;-78
2021/04/15 12:43:34;;;;;;;4.93;3.08;;;;;;;;;;5095088;28;20044;-78
2021/04/15 12:46:02;;;;;;;3.63;2.38;;;;;;;;;;5078678;28;20090;-77
2021/04/15 12:48:40;;;;;;;2.92;2.25;;;;;;;;;;5078861;28;20036;-77
2021/04/15 12:51:08;;;;;;;3.20;2.05;;;;;;;;;;5094334;28;20139;-75
2021/04/15 12:53:36;;;;;;;3.67;2.55;;;;;;;;;;5087396;28;20832;-88
2021/04/15 12:56:03;;;;;;;3.33;2.63;;;;;;;;;;5088253;28;20418;-76
2021/04/15 12:58:30;;;;;;;6.10;1.65;;;;;;;;;;5071229;28;20041;-77
2021/04/15 13:00:56;;;;;;;1.95;1.83;;;;;;;;;;5072648;28;20078;-76
2021/04/15 13:03:29;;;;;;;4.88;2.17;;;;;;;;;;5083547;28;20359;-76
2021/04/15 13:06:01;;;;;;;2.83;2.08;;;;;;;;;;5091532;28;20396;-77
2021/04/15 13:08:27;;;;;;;2.70;1.95;;;;;;;;;;5099360;28;20028;-77
2021/04/15 13:10:54;;;;;;;1.60;1.50;;;;;;;;;;5093005;28;20028;-77
2021/04/15 13:13:21;;;;;;;4.57;2.38;;;;;;;;;;5091643;28;20106;-76
2021/04/15 13:15:47;;;;;;;5.82;1.60;;;;;;;;;;5080967;28;20020;-77
2021/04/15 13:18:32;;;;;;;3.53;1.50;;;;;;;;;;5086007;28;20031;-76
2021/04/15 13:21:03;;;;;;;2.20;1.40;;;;;;;;;;5095389;28;20028;-76
2021/04/15 13:23:35;;;;;;;5.55;1.40;;;;;;;;;;5097504;28;20028;-76
2021/04/15 13:26:01;;;;;;;2.72;1.52;;;;;;;;;;5085367;28;20552;-76
2021/04/15 13:28:39;;;;;;;1.80;1.35;;;;;;;;;;5082972;28;20553;-76
2021/04/15 13:31:06;;;;;;;1.98;1.70;;;;;;;;;;5077056;28;20111;-78
2021/04/15 13:33:32;;;;;;;3.63;1.60;;;;;;;;;;5081294;28;20494;-80
2021/04/15 13:36:01;;;;;;;4.72;2.28;;;;;;;;;;5079612;28;20063;-78
2021/04/15 13:38:42;;;;;;;2.55;1.63;;;;;;;;;;5081515;28;20410;-75
2021/04/15 13:41:10;;;;;;;1.90;1.70;;;;;;;;;;5079223;28;20094;-75
2021/04/15 13:43:36;;;;;;;2.20;1.63;;;;;;;;;;5073422;28;20288;-79
2021/04/15 13:46:35;;;;;;;4.90;2.15;;;;;;;;;;5085459;28;20360;-72
2021/04/15 13:49:04;;;;;;;4.75;3.50;;;;;;;;;;5037245;28;20487;-76
2021/04/15 13:51:53;;;;;;;5.85;3.22;;;;;;;;;;5078865;28;20024;-75
2021/04/15 13:54:23;;;;;;;3.60;2.90;;;;;;;;;;5071597;28;20157;-76
2021/04/15 13:56:53;;;;;;;4.45;3.22;;;;;;;;;;5078536;28;20028;-75
2021/04/15 13:59:45;;;;;;;3.60;3.08;;;;;;;;;;5077854;28;20032;-75
2021/04/15 14:02:11;;;;;;;5.50;2.70;;;;;;;;;;5088678;28;20195;-75
2021/04/15 14:04:43;;;;;;;3.42;3.13;;;;;;;;;;5078188;28;20052;-76
2021/04/15 14:07:29;;;;;;;4.60;2.97;;;;;;;;;;5078267;28;20036;-76
2021/04/15 14:10:10;;;;;;;3.90;3.40;;;;;;;;;;5085456;28;20486;-76
2021/04/15 14:12:41;;;;;;;4.40;3.78;;;;;;;;;;5080532;28;20044;-76
2021/04/15 14:15:16;;;;;;;8.13;5.85;;;;;;;;;;5079017;28;20035;-74
2021/04/15 14:17:43;;;;;;;6.00;4.85;;;;;;;;;;5088108;28;20406;-78
2021/04/15 14:20:17;;;;;;;5.95;4.70;;;;;;;;;;5089479;28;20035;-77
2021/04/15 14:22:43;;;;;;;7.05;5.60;;;;;;;;;;5085038;28;20033;-77
2021/04/15 14:25:16;;;;;;;7.10;5.15;;;;;;;;;;5082468;28;20043;-76
2021/04/15 14:27:42;;;;;;;10.40;7.03;;;;;;;;;;5093468;28;20044;-76
2021/04/15 14:30:14;;;;;;;7.65;6.22;;;;;;;;;;5095514;28;20658;-77
2021/04/15 14:32:40;;;;;;;5.70;5.07;;;;;;;;;;5073834;28;20039;-75
2021/04/15 14:35:19;;;;;;;8.10;7.07;;;;;;;;;;5075054;28;20070;-78
2021/04/15 14:37:45;;;;;;;7.40;6.63;;;;;;;;;;5096150;28;20067;-78
2021/04/15 14:40:20;;;;;;;9.05;8.13;;;;;;;;;;5097832;28;20051;-77
2021/04/15 14:42:46;;;;;;;7.32;6.13;;;;;;;;;;5089308;28;20062;-76
2021/04/15 14:45:21;;;;;;;8.18;7.38;;;;;;;;;;5089173;28;20096;-76
2021/04/15 14:47:49;;;;;;;8.85;7.18;;;;;;;;;;5096608;28;20096;-82
2021/04/15 14:50:25;;;;;;;7.95;7.15;;;;;;;;;;5094617;28;20115;-77
2021/04/15 14:52:51;;;;;;;9.57;7.25;;;;;;;;;;5098649;28;20118;-76
2021/04/15 14:55:31;;;;;;;12.63;8.27;;;;;;;;;;5086492;28;20486;-77
2021/04/15 14:57:59;;;;;;;8.02;7.22;;;;;;;;;;5087919;28;20101;-78
2021/04/15 15:00:27;;;;;;;11.07;8.05;;;;;;;;;;5085336;28;20054;-78
2021/04/15 15:02:56;;;;;;;11.43;8.05;;;;;;;;;;5086987;28;20464;-77
2021/04/15 15:05:33;;;;;;;11.52;9.63;;;;;;;;;;5085745;28;21795;-75
2021/04/15 15:08:00;;;;;;;8.35;7.28;;;;;;;;;;5087258;28;20422;-77
2021/04/15 15:10:27;;;;;;;7.75;6.80;;;;;;;;;;5091795;28;20051;-77
2021/04/15 15:12:54;;;;;;;8.00;7.07;;;;;;;;;;5084467;28;20062;-77
2021/04/15 15:15:22;;;;;;;8.73;5.35;;;;;;;;;;5085721;28;20028;-77
2021/04/15 15:17:48;;;;;;;12.18;7.13;;;;;;;;;;5088694;28;21391;-76